createdAt,value
2022-07-25T00:00:21.087Z,4.40
2022-07-25T00:05:22.906Z,4.25
2022-07-25T00:10:24.868Z,4.40
2022-07-25T00:15:26.600Z,3.85
2022-07-25T00:20:28.339Z,4.75
2022-07-25T00:25:30.047Z,4.40
2022-07-25T00:30:31.796Z,5.07
2022-07-25T00:35:33.659Z,3.92
2022-07-25T00:40:35.789Z,4.38
2022-07-25T00:45:37.635Z,4.40
2022-07-25T00:50:39.429Z,5.80
2022-07-25T00:55:41.183Z,5.13
2022-07-25T01:00:42.957Z,7.53
2022-07-25T01:05:44.841Z,3.95
2022-07-25T01:10:48.149Z,4.93
2022-07-25T01:15:49.960Z,3.80
2022-07-25T01:20:51.794Z,5.97
2022-07-25T01:25:53.872Z,4.60
2022-07-25T01:30:55.718Z,4.38
2022-07-25T01:35:57.538Z,3.58
2022-07-25T01:40:59.267Z,4.22
2022-07-25T01:46:01.066Z,3.83
2022-07-25T01:51:02.847Z,3.33
2022-07-25T01:56:06.164Z,3.70
2022-07-25T02:01:10.720Z,4.22
2022-07-25T02:06:12.642Z,4.65
2022-07-25T02:11:14.452Z,3.97
2022-07-25T02:16:16.186Z,3.78
2022-07-25T02:21:17.938Z,3.88
2022-07-25T02:26:19.673Z,4.95
2022-07-25T02:31:21.758Z,4.65
2022-07-25T02:36:23.663Z,3.90
2022-07-25T02:41:25.415Z,4.35
2022-07-25T02:46:27.229Z,4.00
2022-07-25T02:51:29.422Z,3.38
2022-07-25T02:56:33.122Z,4.60
2022-07-25T03:01:34.880Z,3.55
2022-07-25T03:06:36.680Z,4.90
2022-07-25T03:11:38.570Z,5.32
2022-07-25T03:16:40.739Z,4.10
2022-07-25T03:21:42.535Z,4.03
2022-07-25T03:26:44.441Z,3.70
2022-07-25T03:31:46.250Z,5.25
2022-07-25T03:36:48.041Z,5.03
2022-07-25T03:41:50.052Z,4.47
2022-07-25T03:46:52.206Z,4.45
2022-07-25T03:51:53.926Z,6.15
2022-07-25T03:56:55.745Z,4.13
2022-07-25T04:01:57.526Z,4.38
2022-07-25T04:06:59.510Z,4.70
2022-07-25T04:12:01.379Z,4.20
2022-07-25T04:17:03.236Z,3.80
2022-07-25T04:22:05.111Z,5.85
2022-07-25T04:27:06.992Z,4.40
2022-07-25T04:32:08.939Z,5.45
2022-07-25T04:37:10.952Z,3.30
2022-07-25T04:42:12.906Z,3.97
2022-07-25T04:47:14.745Z,4.85
2022-07-25T04:52:16.583Z,3.90
2022-07-25T04:57:18.697Z,4.35
2022-07-25T05:02:20.474Z,5.07
2022-07-25T05:07:22.234Z,3.50
2022-07-25T05:12:24.025Z,5.65
2022-07-25T05:17:25.779Z,4.43
2022-07-25T05:22:29.120Z,6.10
2022-07-25T05:27:30.990Z,6.82
2022-07-25T05:32:32.941Z,5.03
2022-07-25T05:37:36.113Z,5.10
2022-07-25T05:42:37.924Z,4.15
2022-07-25T05:47:39.729Z,5.82
2022-07-25T05:52:41.592Z,5.63
2022-07-25T05:57:43.488Z,4.97
2022-07-25T06:02:45.494Z,4.85
2022-07-25T06:07:47.392Z,8.75
2022-07-25T06:12:49.201Z,7.75
2022-07-25T06:17:51.244Z,7.18
2022-07-25T06:22:53.158Z,4.93
2022-07-25T06:27:54.929Z,7.00
2022-07-25T06:32:56.739Z,8.93
2022-07-25T06:37:59.090Z,7.82
2022-07-25T06:43:00.869Z,5.35
2022-07-25T06:48:02.802Z,6.10
2022-07-25T06:53:04.580Z,5.22
2022-07-25T06:58:06.383Z,7.65
2022-07-25T07:03:08.348Z,6.60
2022-07-25T07:08:10.165Z,6.90
2022-07-25T07:13:14.068Z,8.43
2022-07-25T07:18:19.901Z,7.35
2022-07-25T07:23:21.676Z,6.88
2022-07-25T07:28:23.540Z,6.07
2022-07-25T07:33:25.365Z,8.65
2022-07-25T07:38:27.683Z,5.65
2022-07-25T07:43:31.775Z,9.82
2022-07-25T07:48:33.943Z,10.68
2022-07-25T07:53:54.294Z,6.50
2022-07-25T07:58:56.118Z,5.85
2022-07-25T08:03:57.992Z,6.85
2022-07-25T08:08:59.779Z,7.65
2022-07-25T08:14:01.791Z,8.88
2022-07-25T08:19:03.805Z,6.80
2022-07-25T08:24:07.029Z,7.50
2022-07-25T08:29:19.421Z,7.60
2022-07-25T08:34:22.599Z,8.00
2022-07-25T08:39:24.440Z,8.73
2022-07-25T08:44:32.241Z,7.00
2022-07-25T08:49:35.497Z,8.48
2022-07-25T08:54:37.531Z,9.73
2022-07-25T08:59:39.297Z,8.45
2022-07-25T09:04:43.398Z,9.35
2022-07-25T09:09:45.225Z,9.32
2022-07-25T09:14:48.737Z,8.02
2022-07-25T09:19:57.710Z,9.07
2022-07-25T09:24:59.536Z,10.48
2022-07-25T09:30:01.344Z,10.15
2022-07-25T09:35:03.275Z,10.70
2022-07-25T09:40:15.625Z,10.45
2022-07-25T09:45:17.396Z,11.10
2022-07-25T09:50:20.633Z,10.32
2022-07-25T09:55:24.813Z,10.70
2022-07-25T10:00:29.045Z,10.68
2022-07-25T10:06:15.775Z,12.23
2022-07-25T10:11:25.637Z,10.23
2022-07-25T10:16:27.849Z,12.57
2022-07-25T10:21:29.732Z,10.27
2022-07-25T10:26:32.300Z,11.00
2022-07-25T10:31:37.000Z,10.50
2022-07-25T10:36:51.164Z,11.98
2022-07-25T10:42:02.832Z,11.85
2022-07-25T10:47:11.477Z,11.75
2022-07-25T10:52:17.775Z,10.52
2022-07-25T10:57:19.646Z,11.70
2022-07-25T11:02:24.389Z,10.85
2022-07-25T11:07:28.638Z,11.30
2022-07-25T11:12:31.237Z,12.02
2022-07-25T11:17:34.330Z,11.10
2022-07-25T11:22:36.779Z,13.00
2022-07-25T11:27:38.639Z,11.13
2022-07-25T11:32:54.073Z,11.25
2022-07-25T11:37:57.171Z,10.82
2022-07-25T11:42:59.791Z,10.20
2022-07-25T11:48:08.869Z,11.90
2022-07-25T11:53:14.730Z,13.57
2022-07-25T11:58:17.904Z,10.30
2022-07-25T12:03:23.406Z,11.32
2022-07-25T12:08:25.506Z,10.20
2022-07-25T12:13:29.746Z,12.50
2022-07-25T12:18:31.569Z,10.60
2022-07-25T12:23:34.429Z,10.43
2022-07-25T12:28:36.265Z,10.10
2022-07-25T12:33:38.345Z,10.80
2022-07-25T12:38:40.286Z,11.27
2022-07-25T12:43:42.391Z,10.52
2022-07-25T12:48:44.251Z,11.27
2022-07-25T12:53:46.952Z,10.27
2022-07-25T12:58:50.379Z,10.38
2022-07-25T13:03:52.177Z,10.48
2022-07-25T13:08:53.969Z,10.38
2022-07-25T13:13:55.768Z,10.10
2022-07-25T13:18:57.564Z,9.52
2022-07-25T13:23:59.397Z,10.32
2022-07-25T13:29:01.891Z,10.48
2022-07-25T13:34:03.792Z,9.95
2022-07-25T13:39:06.660Z,9.77
2022-07-25T13:44:09.078Z,9.85
2022-07-25T13:49:13.977Z,10.60
2022-07-25T13:54:15.891Z,10.75
2022-07-25T13:59:21.518Z,10.48
2022-07-25T14:04:23.808Z,10.02
2022-07-25T14:09:25.596Z,9.63
2022-07-25T14:14:27.356Z,8.98
2022-07-25T14:19:29.171Z,9.63
2022-07-25T14:24:31.013Z,9.55
2022-07-25T14:29:33.229Z,9.75
2022-07-25T14:34:35.629Z,9.40
2022-07-25T14:39:37.540Z,9.20
2022-07-25T14:44:41.517Z,8.75
2022-07-25T14:49:45.604Z,9.25
2022-07-25T14:54:47.403Z,8.75
2022-07-25T14:59:49.224Z,9.10
2022-07-25T15:04:51.101Z,11.43
2022-07-25T15:09:52.957Z,9.50
2022-07-25T15:14:54.851Z,10.68
2022-07-25T15:19:56.710Z,9.43
2022-07-25T15:25:29.773Z,9.93
2022-07-25T15:30:21.340Z,9.57
2022-07-25T15:35:25.429Z,9.48
2022-07-25T15:40:27.476Z,10.00
2022-07-25T15:45:33.119Z,9.80
2022-07-25T15:50:37.064Z,9.80
2022-07-25T15:55:40.686Z,10.55
2022-07-25T16:00:42.816Z,11.05
2022-07-25T16:05:45.085Z,9.93
2022-07-25T16:10:46.841Z,8.93
2022-07-25T16:15:48.657Z,10.18
2022-07-25T16:20:50.516Z,10.20
2022-07-25T16:25:52.564Z,8.88
2022-07-25T16:30:54.485Z,10.43
2022-07-25T16:35:57.298Z,12.23
2022-07-25T16:40:59.524Z,9.52
2022-07-25T16:46:02.114Z,9.88
2022-07-25T16:51:04.626Z,11.13
2022-07-25T16:56:06.857Z,12.13
2022-07-25T17:01:08.750Z,12.75
2022-07-25T17:06:10.713Z,12.15
2022-07-25T17:11:12.688Z,14.25
2022-07-25T17:16:14.639Z,14.35
2022-07-25T17:21:18.299Z,11.43
2022-07-25T17:26:20.925Z,13.63
2022-07-25T17:31:24.271Z,13.00
2022-07-25T17:36:26.265Z,15.05
2022-07-25T17:41:28.022Z,11.60
2022-07-25T17:46:29.932Z,14.00
2022-07-25T17:51:32.066Z,14.00
2022-07-25T17:56:33.956Z,12.13
2022-07-25T18:01:35.808Z,10.43
2022-07-25T18:06:37.677Z,9.88
2022-07-25T18:11:40.483Z,10.43
2022-07-25T18:16:45.351Z,9.77
2022-07-25T18:21:47.738Z,10.93
2022-07-25T18:26:49.659Z,10.27
2022-07-25T18:31:51.470Z,11.95
2022-07-25T18:36:53.319Z,10.63
2022-07-25T18:41:55.105Z,9.18
2022-07-25T18:46:56.887Z,10.52
2022-07-25T18:51:59.370Z,10.90
2022-07-25T18:57:01.151Z,11.32
2022-07-25T19:02:03.345Z,11.73
2022-07-25T19:07:05.320Z,11.35
2022-07-25T19:12:07.829Z,11.45
2022-07-25T19:17:09.666Z,13.45
2022-07-25T19:22:11.582Z,13.20
2022-07-25T19:27:13.416Z,13.73
2022-07-25T19:32:17.968Z,11.88
2022-07-25T19:37:20.146Z,11.70
2022-07-25T19:42:22.058Z,13.68
2022-07-25T19:47:23.858Z,11.70
2022-07-25T19:52:25.805Z,13.40
2022-07-25T19:57:28.066Z,17.25
2022-07-25T20:02:29.874Z,12.63
2022-07-25T20:07:31.739Z,13.23
2022-07-25T20:12:34.962Z,10.65
2022-07-25T20:17:36.766Z,10.70
2022-07-25T20:22:38.644Z,11.88
2022-07-25T20:27:40.590Z,11.10
2022-07-25T20:32:42.497Z,8.65
2022-07-25T20:37:44.486Z,10.30
2022-07-25T20:42:46.641Z,16.73
2022-07-25T20:47:48.622Z,13.35
2022-07-25T20:52:50.824Z,12.13
2022-07-25T20:57:52.615Z,9.23
2022-07-25T21:02:55.317Z,10.52
2022-07-25T21:07:58.281Z,10.30
2022-07-25T21:13:00.053Z,10.70
2022-07-25T21:18:01.976Z,10.57
2022-07-25T21:23:04.508Z,11.02
2022-07-25T21:28:06.607Z,11.05
2022-07-25T21:33:14.295Z,11.20
2022-07-25T21:38:26.712Z,12.02
2022-07-25T21:43:30.101Z,11.15
2022-07-25T21:48:50.324Z,12.32
2022-07-25T21:53:52.787Z,11.23
2022-07-25T21:58:54.671Z,11.13
2022-07-25T22:03:56.511Z,13.23
2022-07-25T22:08:58.354Z,15.73
2022-07-25T22:14:00.202Z,14.38
2022-07-25T22:19:02.235Z,16.27
2022-07-25T22:24:04.322Z,14.80
2022-07-25T22:29:06.366Z,13.30
2022-07-25T22:34:08.565Z,14.05
2022-07-25T22:39:11.150Z,14.32
2022-07-25T22:44:13.425Z,15.95
2022-07-25T22:49:15.282Z,14.68
2022-07-25T22:54:17.382Z,14.13
2022-07-25T22:59:19.348Z,15.13
2022-07-25T23:04:21.268Z,13.05
2022-07-25T23:09:23.520Z,14.93
2022-07-25T23:14:25.363Z,11.43
2022-07-25T23:19:27.252Z,12.30
2022-07-25T23:24:29.060Z,11.73
2022-07-25T23:29:30.973Z,13.80
2022-07-25T23:34:33.360Z,12.88
2022-07-25T23:39:35.837Z,11.43
2022-07-25T23:44:38.022Z,11.30
2022-07-25T23:49:39.881Z,9.73
2022-07-25T23:54:41.814Z,8.50
2022-07-25T23:59:43.658Z,10.52
